createdAt,value
2022-11-28T00:01:17.744Z,15.43
2022-11-28T00:03:44.804Z,15.07
2022-11-28T00:06:11.911Z,13.23
2022-11-28T00:08:39.019Z,14.90
2022-11-28T00:11:07.484Z,13.95
2022-11-28T00:13:34.795Z,12.80
2022-11-28T00:16:04.221Z,14.95
2022-11-28T00:18:31.773Z,13.35
2022-11-28T00:21:06.398Z,15.68
2022-11-28T00:23:33.954Z,16.13
2022-11-28T00:26:06.243Z,15.25
2022-11-28T00:28:33.496Z,15.77
2022-11-28T00:31:00.578Z,14.25
2022-11-28T00:33:27.917Z,14.80
2022-11-28T00:36:02.074Z,18.73
2022-11-28T00:38:29.674Z,14.15
2022-11-28T00:41:00.841Z,14.75
2022-11-28T00:43:28.120Z,14.85
2022-11-28T00:45:55.214Z,14.43
2022-11-28T00:48:22.321Z,16.05
2022-11-28T00:50:49.616Z,14.13
2022-11-28T00:53:16.920Z,15.73
2022-11-28T00:55:44.026Z,16.48
2022-11-28T00:58:11.068Z,13.80
2022-11-28T01:00:38.794Z,13.75
2022-11-28T01:03:05.921Z,14.23
2022-11-28T01:05:33.040Z,14.60
2022-11-28T01:08:00.077Z,14.20
2022-11-28T01:10:27.185Z,14.93
2022-11-28T01:12:54.284Z,15.30
2022-11-28T01:15:21.344Z,13.85
2022-11-28T01:17:48.361Z,13.63
2022-11-28T01:20:15.629Z,15.15
2022-11-28T01:22:42.693Z,13.98
2022-11-28T01:25:09.750Z,17.15
2022-11-28T01:27:36.768Z,19.00
2022-11-28T01:30:04.434Z,16.70
2022-11-28T01:32:31.484Z,15.10
2022-11-28T01:34:58.500Z,12.93
2022-11-28T01:37:25.525Z,15.65
2022-11-28T01:39:52.557Z,14.82
2022-11-28T01:42:20.135Z,17.55
2022-11-28T01:44:50.329Z,14.13
2022-11-28T01:47:19.340Z,13.80
2022-11-28T01:49:47.339Z,12.18
2022-11-28T01:52:16.461Z,15.85
2022-11-28T01:54:45.479Z,13.55
2022-11-28T01:57:16.092Z,15.07
2022-11-28T01:59:45.759Z,13.90
2022-11-28T02:02:18.682Z,15.48
2022-11-28T02:04:46.389Z,14.85
2022-11-28T02:07:13.966Z,14.00
2022-11-28T02:09:41.018Z,15.07
2022-11-28T02:12:16.729Z,15.10
2022-11-28T02:15:16.241Z,15.02
2022-11-28T02:18:02.170Z,16.50
2022-11-28T02:20:55.250Z,15.45
2022-11-28T02:23:28.432Z,15.98
2022-11-28T02:26:14.337Z,19.48
2022-11-28T02:29:28.231Z,17.65
2022-11-28T02:32:13.929Z,16.20
2022-11-28T02:34:47.112Z,16.08
2022-11-28T02:37:20.321Z,17.80
2022-11-28T02:40:06.194Z,17.60
2022-11-28T02:42:42.992Z,20.23
2022-11-28T02:45:10.355Z,15.88
2022-11-28T02:47:39.235Z,16.35
2022-11-28T02:50:06.349Z,15.13
2022-11-28T02:52:59.656Z,14.88
2022-11-28T02:55:27.127Z,17.33
2022-11-28T02:57:55.419Z,19.50
2022-11-28T03:00:33.283Z,16.80
2022-11-28T03:03:08.320Z,18.15
2022-11-28T03:05:41.305Z,17.80
2022-11-28T03:08:11.388Z,17.25
2022-11-28T03:10:45.953Z,16.75
2022-11-28T03:13:25.291Z,17.60
2022-11-28T03:15:58.529Z,15.73
2022-11-28T03:18:27.348Z,16.98
2022-11-28T03:20:54.323Z,22.05
2022-11-28T03:23:32.217Z,19.48
2022-11-28T03:26:02.234Z,17.77
2022-11-28T03:28:39.272Z,16.58
2022-11-28T03:31:15.245Z,17.85
2022-11-28T03:34:02.532Z,17.52
2022-11-28T03:36:31.763Z,20.15
2022-11-28T03:39:00.830Z,17.90
2022-11-28T03:41:31.270Z,18.20
2022-11-28T03:43:59.034Z,18.83
2022-11-28T03:46:28.165Z,19.67
2022-11-28T03:48:56.595Z,16.48
2022-11-28T03:51:34.608Z,19.70
2022-11-28T03:54:08.539Z,18.33
2022-11-28T03:56:47.478Z,16.45
2022-11-28T03:59:17.746Z,15.75
2022-11-28T04:01:49.669Z,17.45
2022-11-28T04:04:31.291Z,17.88
2022-11-28T04:07:01.327Z,17.25
2022-11-28T04:09:28.341Z,17.95
2022-11-28T04:11:57.493Z,17.45
2022-11-28T04:14:29.396Z,17.10
2022-11-28T04:17:01.029Z,21.58
2022-11-28T04:19:34.008Z,15.18
2022-11-28T04:22:04.063Z,17.83
2022-11-28T04:24:37.715Z,15.85
2022-11-28T04:27:07.047Z,15.82
2022-11-28T04:29:39.930Z,17.85
2022-11-28T04:32:08.767Z,17.45
2022-11-28T04:34:36.790Z,16.65
2022-11-28T04:37:09.608Z,16.45
2022-11-28T04:39:37.506Z,15.60
2022-11-28T04:42:10.952Z,17.70
2022-11-28T04:44:41.350Z,16.42
2022-11-28T04:47:08.681Z,14.63
2022-11-28T04:49:35.728Z,16.33
2022-11-28T04:52:07.385Z,15.35
2022-11-28T04:54:50.801Z,17.38
2022-11-28T04:57:36.583Z,29.17
2022-11-28T05:00:06.035Z,14.77
2022-11-28T05:02:33.932Z,18.45
2022-11-28T05:05:01.112Z,15.32
2022-11-28T05:07:28.257Z,15.32
2022-11-28T05:09:57.594Z,14.73
2022-11-28T05:12:24.616Z,16.08
2022-11-28T05:14:51.956Z,16.02
2022-11-28T05:17:18.949Z,14.48
2022-11-28T05:19:46.046Z,14.55
2022-11-28T05:22:13.118Z,17.10
2022-11-28T05:24:40.123Z,17.98
2022-11-28T05:27:07.786Z,15.90
2022-11-28T05:29:35.034Z,16.50
2022-11-28T05:32:02.594Z,13.45
2022-11-28T05:34:31.034Z,15.27
2022-11-28T05:36:58.711Z,17.85
2022-11-28T05:39:26.871Z,14.82
2022-11-28T05:41:55.328Z,14.90
2022-11-28T05:44:26.675Z,15.80
2022-11-28T05:46:54.094Z,16.35
2022-11-28T05:49:21.639Z,15.75
2022-11-28T05:51:49.254Z,16.95
2022-11-28T05:54:16.402Z,16.25
2022-11-28T05:56:43.419Z,13.55
2022-11-28T05:59:10.517Z,16.00
2022-11-28T06:01:37.529Z,15.13
2022-11-28T06:04:04.608Z,17.40
2022-11-28T06:06:32.763Z,17.42
2022-11-28T06:08:59.913Z,16.20
2022-11-28T06:11:27.947Z,16.85
2022-11-28T06:13:55.116Z,16.63
2022-11-28T06:16:26.092Z,17.60
2022-11-28T06:18:57.664Z,17.45
2022-11-28T06:21:25.405Z,26.30
2022-11-28T06:23:52.473Z,16.05
2022-11-28T06:26:20.983Z,16.00
2022-11-28T06:28:48.107Z,15.85
2022-11-28T06:31:16.897Z,16.98
2022-11-28T06:33:43.969Z,14.55
2022-11-28T06:36:11.588Z,15.63
2022-11-28T06:38:38.740Z,16.73
2022-11-28T06:41:07.995Z,15.25
2022-11-28T06:43:35.305Z,16.30
2022-11-28T06:46:02.737Z,18.65
2022-11-28T06:48:29.773Z,14.23
2022-11-28T06:51:02.988Z,16.90
2022-11-28T06:53:31.596Z,16.80
2022-11-28T06:55:58.924Z,15.07
2022-11-28T06:58:25.943Z,15.07
2022-11-28T07:00:53.054Z,14.98
2022-11-28T07:03:20.109Z,19.00
2022-11-28T07:05:47.124Z,16.67
2022-11-28T07:08:14.312Z,18.67
2022-11-28T07:10:41.363Z,17.35
2022-11-28T07:13:09.758Z,16.63
2022-11-28T07:15:36.761Z,18.75
2022-11-28T07:18:04.015Z,20.90
2022-11-28T07:20:30.999Z,17.05
2022-11-28T07:22:57.999Z,20.60
2022-11-28T07:25:25.004Z,16.63
2022-11-28T07:27:52.058Z,16.70
2022-11-28T07:30:20.160Z,16.40
2022-11-28T07:32:47.202Z,16.90
2022-11-28T07:35:14.226Z,15.32
2022-11-28T07:37:41.243Z,16.60
2022-11-28T07:40:08.663Z,17.77
2022-11-28T07:42:36.652Z,16.77
2022-11-28T07:45:04.139Z,15.10
2022-11-28T07:47:31.591Z,16.70
2022-11-28T07:49:58.619Z,17.52
2022-11-28T07:52:25.657Z,16.40
2022-11-28T07:54:52.677Z,15.73
2022-11-28T07:57:19.766Z,16.10
2022-11-28T07:59:46.799Z,15.02
2022-11-28T08:02:14.126Z,16.10
2022-11-28T08:04:47.083Z,18.17
2022-11-28T08:07:16.578Z,15.82
2022-11-28T08:09:44.036Z,17.25
2022-11-28T08:12:11.308Z,15.63
2022-11-28T08:14:38.457Z,18.48
2022-11-28T08:17:05.501Z,15.38
2022-11-28T08:19:35.344Z,17.10
2022-11-28T08:22:03.678Z,17.15
2022-11-28T08:24:30.732Z,15.00
2022-11-28T08:26:58.008Z,14.40
2022-11-28T08:29:25.041Z,16.55
2022-11-28T08:31:52.065Z,15.15
2022-11-28T08:34:19.153Z,16.13
2022-11-28T08:36:47.349Z,22.33
2022-11-28T08:39:29.823Z,17.25
2022-11-28T08:41:58.739Z,17.58
2022-11-28T08:44:26.840Z,18.60
2022-11-28T08:46:54.048Z,17.33
2022-11-28T08:49:21.112Z,17.38
2022-11-28T08:51:48.160Z,17.20
2022-11-28T08:54:15.729Z,16.58
2022-11-28T08:56:44.779Z,16.50
2022-11-28T08:59:11.786Z,17.15
2022-11-28T09:01:39.779Z,18.27
2022-11-28T09:04:07.102Z,18.58
2022-11-28T09:06:34.348Z,17.17
2022-11-28T09:09:03.018Z,21.70
2022-11-28T09:11:30.069Z,17.25
2022-11-28T09:13:57.171Z,16.17
2022-11-28T09:16:24.403Z,15.82
2022-11-28T09:18:51.570Z,16.27
2022-11-28T09:21:18.736Z,18.10
2022-11-28T09:23:46.097Z,14.40
2022-11-28T09:26:14.612Z,14.85
2022-11-28T09:28:41.654Z,14.50
2022-11-28T09:31:09.253Z,19.00
2022-11-28T09:33:36.622Z,15.68
2022-11-28T09:36:08.110Z,24.45
2022-11-28T09:38:35.326Z,19.95
2022-11-28T09:41:03.512Z,18.15
2022-11-28T09:43:33.120Z,16.73
2022-11-28T09:46:02.918Z,17.08
2022-11-28T09:48:32.587Z,20.75
2022-11-28T09:51:20.029Z,15.05
2022-11-28T09:53:51.447Z,20.30
2022-11-28T09:56:21.368Z,19.52
2022-11-28T09:58:55.494Z,38.53
2022-11-28T10:01:25.438Z,18.35
2022-11-28T10:03:56.587Z,18.42
2022-11-28T10:06:26.078Z,19.60
2022-11-28T10:08:59.413Z,17.90
2022-11-28T10:11:44.992Z,16.70
2022-11-28T10:14:18.104Z,16.02
2022-11-28T10:16:51.395Z,14.95
2022-11-28T10:19:52.208Z,16.85
2022-11-28T10:22:10.587Z,17.05
2022-11-28T10:24:55.072Z,17.33
2022-11-28T10:27:27.087Z,16.25
2022-11-28T10:30:02.642Z,14.98
2022-11-28T10:32:33.269Z,19.80
2022-11-28T10:35:00.262Z,20.55
2022-11-28T10:37:28.421Z,15.02
2022-11-28T10:39:56.445Z,16.27
2022-11-28T10:42:27.799Z,15.38
2022-11-28T10:45:00.745Z,15.48
2022-11-28T10:47:52.943Z,19.00
2022-11-28T10:50:33.929Z,15.13
2022-11-28T10:53:06.682Z,17.58
2022-11-28T10:56:00.895Z,15.00
2022-11-28T10:58:30.728Z,16.33
2022-11-28T11:00:58.449Z,15.70
2022-11-28T11:03:28.462Z,15.07
2022-11-28T11:05:55.541Z,17.95
2022-11-28T11:08:23.927Z,20.40
2022-11-28T11:10:52.582Z,16.40
2022-11-28T11:13:19.644Z,14.93
2022-11-28T11:15:53.767Z,16.55
2022-11-28T11:18:31.887Z,18.13
2022-11-28T11:21:17.914Z,17.05
2022-11-28T11:23:45.692Z,16.60
2022-11-28T11:26:32.978Z,16.65
2022-11-28T11:29:00.054Z,15.77
2022-11-28T11:31:28.879Z,15.77
2022-11-28T11:34:13.596Z,21.05
2022-11-28T11:36:40.830Z,17.83
2022-11-28T11:39:07.925Z,23.25
2022-11-28T11:41:35.100Z,15.35
2022-11-28T11:44:25.232Z,19.35
2022-11-28T11:46:52.416Z,16.83
2022-11-28T11:49:28.674Z,20.58
2022-11-28T11:52:07.775Z,18.13
2022-11-28T11:54:34.844Z,17.63
2022-11-28T11:57:30.655Z,18.38
2022-11-28T11:59:54.942Z,16.92
2022-11-28T12:02:37.428Z,17.23
2022-11-28T12:05:09.734Z,18.17
2022-11-28T12:07:49.332Z,19.77
2022-11-28T12:10:18.771Z,18.67
2022-11-28T12:12:45.849Z,19.45
2022-11-28T12:15:16.118Z,17.48
2022-11-28T12:18:03.899Z,16.13
2022-11-28T12:20:43.119Z,19.85
2022-11-28T12:23:17.184Z,23.55
2022-11-28T12:25:56.975Z,24.02
2022-11-28T12:28:32.876Z,18.52
2022-11-28T12:31:06.005Z,17.42
2022-11-28T12:33:39.188Z,17.08
2022-11-28T12:36:25.058Z,19.00
2022-11-28T12:39:01.503Z,18.47
2022-11-28T12:41:40.973Z,19.75
2022-11-28T12:44:07.959Z,17.20
2022-11-28T12:46:40.115Z,23.67
2022-11-28T12:49:17.847Z,34.30
2022-11-28T12:52:09.813Z,19.60
2022-11-28T12:54:39.651Z,36.80
2022-11-28T12:57:19.910Z,43.53
2022-11-28T13:00:09.184Z,38.33
2022-11-28T13:02:52.860Z,42.47
2022-11-28T13:05:27.964Z,24.77
2022-11-28T13:08:13.815Z,46.30
2022-11-28T13:10:53.146Z,32.38
2022-11-28T13:13:39.930Z,20.77
2022-11-28T13:16:07.052Z,34.63
2022-11-28T13:18:46.350Z,38.80
2022-11-28T13:21:19.388Z,56.58
2022-11-28T13:24:07.170Z,34.17
2022-11-28T13:26:39.319Z,35.13
2022-11-28T13:29:35.673Z,62.33
2022-11-28T13:32:17.634Z,43.37
2022-11-28T13:34:45.516Z,26.63
2022-11-28T13:40:45.675Z,28.93
2022-11-28T13:43:38.826Z,28.10
2022-11-28T13:46:08.277Z,26.20
2022-11-28T13:51:33.241Z,25.85
2022-11-28T13:54:40.863Z,28.90
2022-11-28T13:57:28.975Z,23.27
2022-11-28T14:00:04.459Z,23.73
2022-11-28T14:02:48.044Z,21.03
2022-11-28T14:05:26.575Z,20.50
2022-11-28T14:07:55.965Z,21.20
2022-11-28T14:10:33.603Z,19.13
2022-11-28T14:13:22.937Z,20.93
2022-11-28T14:16:18.001Z,19.00
2022-11-28T14:19:15.228Z,16.30
2022-11-28T14:22:06.477Z,18.80
2022-11-28T14:24:48.153Z,17.90
2022-11-28T14:27:27.692Z,18.20
2022-11-28T14:29:56.821Z,18.43
2022-11-28T14:32:35.407Z,17.77
2022-11-28T14:35:03.449Z,18.77
2022-11-28T14:37:34.675Z,14.33
2022-11-28T14:40:01.653Z,15.50
2022-11-28T14:42:59.108Z,16.60
2022-11-28T14:45:33.401Z,18.27
2022-11-28T14:48:17.306Z,18.17
2022-11-28T14:50:56.216Z,23.77
2022-11-28T14:53:45.424Z,21.40
2022-11-28T14:56:26.397Z,22.47
2022-11-28T14:58:57.957Z,19.10
2022-11-28T15:01:42.620Z,25.90
2022-11-28T15:04:36.650Z,16.47
2022-11-28T15:07:08.004Z,16.93
2022-11-28T15:09:42.759Z,19.77
2022-11-28T15:12:30.826Z,24.90
2022-11-28T15:14:58.168Z,21.97
2022-11-28T15:17:33.336Z,19.97
2022-11-28T15:20:09.118Z,16.73
2022-11-28T15:22:41.545Z,16.13
2022-11-28T15:25:21.719Z,18.00
2022-11-28T15:27:49.692Z,17.57
2022-11-28T15:30:21.656Z,19.57
2022-11-28T15:32:49.044Z,17.43
2022-11-28T15:35:20.532Z,15.63
2022-11-28T15:37:54.474Z,17.40
2022-11-28T15:40:33.901Z,16.43
2022-11-28T15:43:06.624Z,18.07
2022-11-28T15:45:36.857Z,17.47
2022-11-28T15:48:04.703Z,16.83
2022-11-28T15:50:33.721Z,17.33
2022-11-28T15:53:03.534Z,18.70
2022-11-28T15:55:32.707Z,19.20
2022-11-28T15:58:21.402Z,18.00
2022-11-28T16:01:18.657Z,17.70
2022-11-28T16:03:51.613Z,19.20
2022-11-28T16:06:19.679Z,19.00
2022-11-28T16:08:58.771Z,18.37
2022-11-28T16:11:28.441Z,18.60
2022-11-28T16:13:58.976Z,19.07
2022-11-28T16:16:31.604Z,17.03
2022-11-28T16:19:01.805Z,17.50
2022-11-28T16:21:35.233Z,18.63
2022-11-28T16:24:03.344Z,16.50
2022-11-28T16:26:36.304Z,17.53
2022-11-28T16:29:13.483Z,17.17
2022-11-28T16:31:41.831Z,18.10
2022-11-28T16:34:13.681Z,20.40
2022-11-28T16:36:42.508Z,18.83
2022-11-28T16:39:12.084Z,18.73
2022-11-28T16:41:43.264Z,19.10
2022-11-28T16:44:15.869Z,18.20
2022-11-28T16:46:55.609Z,19.53
2022-11-28T16:49:28.199Z,20.20
2022-11-28T16:52:22.496Z,18.47
2022-11-28T16:54:56.349Z,17.47
2022-11-28T16:57:26.508Z,17.40
2022-11-28T16:59:56.800Z,21.37
2022-11-28T17:02:26.741Z,17.57
2022-11-28T17:04:53.912Z,16.90
2022-11-28T17:07:23.214Z,17.33
2022-11-28T17:09:50.395Z,18.67
2022-11-28T17:12:27.489Z,22.87
2022-11-28T17:14:55.419Z,19.50
2022-11-28T17:17:23.442Z,24.63
2022-11-28T17:19:50.923Z,18.00
2022-11-28T17:22:21.841Z,17.27
2022-11-28T17:24:50.389Z,19.87
2022-11-28T17:27:17.208Z,25.10
2022-11-28T17:29:44.323Z,24.43
2022-11-28T17:32:13.439Z,20.40
2022-11-28T17:34:41.982Z,23.33
2022-11-28T17:37:09.335Z,22.93
2022-11-28T17:39:36.331Z,29.87
2022-11-28T17:42:03.723Z,23.70
2022-11-28T17:44:36.362Z,19.90
2022-11-28T17:47:09.898Z,21.00
2022-11-28T17:49:46.742Z,19.50
2022-11-28T17:52:17.736Z,20.80
2022-11-28T17:54:50.766Z,21.93
2022-11-28T17:57:17.702Z,22.80
2022-11-28T17:59:48.693Z,19.10
2022-11-28T18:02:15.654Z,23.73
2022-11-28T18:04:45.714Z,24.10
2022-11-28T18:07:12.864Z,20.60
2022-11-28T18:09:49.473Z,21.57
2022-11-28T18:12:17.545Z,22.03
2022-11-28T18:14:44.147Z,21.00
2022-11-28T18:17:11.962Z,19.93
2022-11-28T18:19:38.738Z,19.10
2022-11-28T18:22:07.538Z,20.37
2022-11-28T18:24:34.457Z,20.77
2022-11-28T18:27:01.062Z,19.97
2022-11-28T18:29:27.794Z,20.30
2022-11-28T18:31:54.474Z,25.23
2022-11-28T18:34:22.253Z,23.20
2022-11-28T18:36:48.921Z,31.70
2022-11-28T18:39:15.677Z,35.30
2022-11-28T18:41:42.664Z,33.67
2022-11-28T18:44:11.220Z,31.23
2022-11-28T18:46:39.438Z,31.40
2022-11-28T18:49:06.161Z,24.52
2022-11-28T18:51:34.959Z,22.70
2022-11-28T18:54:05.501Z,25.63
2022-11-28T18:56:32.585Z,23.93
2022-11-28T18:58:59.239Z,23.40
2022-11-28T19:01:34.192Z,20.40
2022-11-28T19:04:04.040Z,20.93
2022-11-28T19:06:31.701Z,24.20
2022-11-28T19:09:01.008Z,20.30
2022-11-28T19:11:29.303Z,21.03
2022-11-28T19:13:56.763Z,20.60
2022-11-28T19:16:30.672Z,20.20
2022-11-28T19:18:58.131Z,21.30
2022-11-28T19:21:27.558Z,23.10
2022-11-28T19:23:55.763Z,21.10
2022-11-28T19:26:24.527Z,26.90
2022-11-28T19:28:51.325Z,22.38
2022-11-28T19:31:29.049Z,23.77
2022-11-28T19:34:01.281Z,21.43
2022-11-28T19:36:30.624Z,22.30
2022-11-28T19:38:58.539Z,21.13
2022-11-28T19:41:25.561Z,20.63
2022-11-28T19:43:52.656Z,19.47
2022-11-28T19:46:20.483Z,19.17
2022-11-28T19:48:48.216Z,24.83
2022-11-28T19:51:16.178Z,23.30
2022-11-28T19:53:44.738Z,22.00
2022-11-28T19:56:14.448Z,23.60
2022-11-28T19:58:41.760Z,19.60
2022-11-28T20:01:16.165Z,22.30
2022-11-28T20:03:43.324Z,21.83
2022-11-28T20:06:11.657Z,25.20
2022-11-28T20:08:39.372Z,22.30
2022-11-28T20:11:17.137Z,21.60
2022-11-28T20:13:44.620Z,21.63
2022-11-28T20:16:13.326Z,24.13
2022-11-28T20:18:41.549Z,23.50
2022-11-28T20:21:10.176Z,24.37
2022-11-28T20:23:44.248Z,22.60
2022-11-28T20:26:11.771Z,19.90
2022-11-28T20:28:40.462Z,22.77
2022-11-28T20:31:08.346Z,25.83
2022-11-28T20:33:35.392Z,24.10
2022-11-28T20:36:09.779Z,24.70
2022-11-28T20:38:36.911Z,26.97
2022-11-28T20:41:05.260Z,22.30
2022-11-28T20:43:32.914Z,23.57
2022-11-28T20:46:08.539Z,25.40
2022-11-28T20:48:35.598Z,26.20
2022-11-28T20:51:02.457Z,24.53
2022-11-28T20:53:30.989Z,24.60
2022-11-28T20:56:05.471Z,28.13
2022-11-28T20:58:33.084Z,26.23
2022-11-28T21:00:59.873Z,23.03
2022-11-28T21:03:26.947Z,23.47
2022-11-28T21:05:59.367Z,21.00
2022-11-28T21:08:30.314Z,24.80
2022-11-28T21:10:57.059Z,24.27
2022-11-28T21:13:23.675Z,23.93
2022-11-28T21:15:50.652Z,21.00
2022-11-28T21:18:17.467Z,27.40
2022-11-28T21:20:46.761Z,24.97
2022-11-28T21:23:15.313Z,23.17
2022-11-28T21:25:44.325Z,25.07
2022-11-28T21:28:12.349Z,24.50
2022-11-28T21:30:41.552Z,26.17
2022-11-28T21:33:10.011Z,22.43
2022-11-28T21:35:37.205Z,21.97
2022-11-28T21:38:04.330Z,22.43
2022-11-28T21:40:31.745Z,24.53
2022-11-28T21:42:59.793Z,23.80
2022-11-28T21:45:28.099Z,22.73
2022-11-28T21:47:56.342Z,23.87
2022-11-28T21:50:24.379Z,23.40
2022-11-28T21:52:52.436Z,23.20
2022-11-28T21:55:19.483Z,23.57
2022-11-28T21:57:46.527Z,27.67
2022-11-28T22:00:31.588Z,23.57
2022-11-28T22:03:08.058Z,23.10
2022-11-28T22:05:38.035Z,26.73
2022-11-28T22:08:08.257Z,21.73
2022-11-28T22:10:37.490Z,24.77
2022-11-28T22:13:04.500Z,22.20
2022-11-28T22:15:31.521Z,21.13
2022-11-28T22:17:58.596Z,24.37
2022-11-28T22:20:25.619Z,20.03
2022-11-28T22:22:52.685Z,21.27
2022-11-28T22:25:19.776Z,23.57
2022-11-28T22:27:46.831Z,22.20
2022-11-28T22:30:13.564Z,23.27
2022-11-28T22:32:40.203Z,24.73
2022-11-28T22:35:09.194Z,21.00
2022-11-28T22:37:36.413Z,26.33
2022-11-28T22:40:04.157Z,21.00
2022-11-28T22:42:30.819Z,23.03
2022-11-28T22:44:57.450Z,21.63
2022-11-28T22:47:24.096Z,22.00
2022-11-28T22:49:50.665Z,25.67
2022-11-28T22:52:17.439Z,23.10
2022-11-28T22:54:44.335Z,21.90
2022-11-28T22:57:11.115Z,24.47
2022-11-28T22:59:38.594Z,21.50
2022-11-28T23:02:05.382Z,23.10
2022-11-28T23:04:32.347Z,26.27
2022-11-28T23:07:00.505Z,25.50
2022-11-28T23:09:27.250Z,28.10
2022-11-28T23:11:53.870Z,25.90
2022-11-28T23:14:20.497Z,31.70
2022-11-28T23:16:49.590Z,26.93
2022-11-28T23:19:18.079Z,22.80
2022-11-28T23:21:46.558Z,27.67
2022-11-28T23:24:14.752Z,29.63
2022-11-28T23:26:41.894Z,28.47
2022-11-28T23:29:08.957Z,30.00
2022-11-28T23:31:37.908Z,30.20
2022-11-28T23:34:04.971Z,34.23
2022-11-28T23:36:38.481Z,33.73
2022-11-28T23:39:11.043Z,39.10
2022-11-28T23:41:38.100Z,31.17
2022-11-28T23:44:05.336Z,34.13
2022-11-28T23:46:33.277Z,34.73
2022-11-28T23:49:00.291Z,29.47
2022-11-28T23:51:27.375Z,28.37
2022-11-28T23:53:54.740Z,35.00
2022-11-28T23:56:27.093Z,32.10
2022-11-28T23:58:55.183Z,31.60
